Liberty — WDD2088 — position and weather

sailwx.info

Track history (hours):
 
Tides and Currents Weather Stations Pressure Air Temp Water Temp Dewpoint Dewpoint Depression Visibility Wind Speed Wind Dir Waves Ship Positions

Liberty

More information available from US FCC via Universal Licensing System.

Last reported at 2014-Aug-18 10:30 UTC. Time now 2014-Aug-21 14:09 UTC.
Position N 48°27' W 122°31'.

Length 25 m.

MMSI: 367110770.

Date/timePositionNaut miles runAvg speedWind from/ knotsBaromVisibWave heightAir tempDewpointWater temp
2014-Aug-18 10:30N 48°27' W 122°31'0 0.0
2014-Aug-17 11:18N 48°27' W 122°31'0 0.0
2014-Aug-17 09:12N 48°27' W 122°31'0 0.0
2014-Aug-15 23:08N 48°27' W 122°31'4 6.4
2014-Aug-15 22:33N 48°31' W 122°34'10 7.7
2014-Aug-15 21:12N 48°32' W 122°49'8 8.4
2014-Aug-15 20:14N 48°36' W 122°60'2 2.9
2014-Aug-15 19:28N 48°37' W 123°03'5 5.5
2014-Aug-15 18:33N 48°37' W 123°10'1 0.9
2014-Aug-15 17:33N 48°37' W 123°09'0 0.0
2014-Aug-15 16:33N 48°37' W 123°09'0 0.0
2014-Aug-15 15:33N 48°37' W 123°09'0 0.0
2014-Aug-15 14:33N 48°37' W 123°09'0 0.0
2014-Aug-15 13:33N 48°37' W 123°09'0 0.0
2014-Aug-15 12:33N 48°37' W 123°09'0 0.0
2014-Aug-15 11:33N 48°37' W 123°09'0 0.0
2014-Aug-15 10:33N 48°37' W 123°09'0 0.0
2014-Aug-15 09:33N 48°37' W 123°09'0 0.0
2014-Aug-15 08:33N 48°37' W 123°09'0 0.0
2014-Aug-15 07:33N 48°37' W 123°09'0 0.0
2014-Aug-15 06:33N 48°37' W 123°09'0 0.0
2014-Aug-15 05:33N 48°37' W 123°09'0 0.0
2014-Aug-15 04:27N 48°37' W 123°09'0 0.0
2014-Aug-15 03:33N 48°37' W 123°09'0 0.0
2014-Aug-15 02:27N 48°37' W 123°09'0 0.0
2014-Aug-15 01:33N 48°37' W 123°09'0 0.0
2014-Aug-15 00:27N 48°37' W 123°09'0 0.0
2014-Aug-14 23:27N 48°37' W 123°09'0 0.0
2014-Aug-14 22:27N 48°37' W 123°09'0 0.0
2014-Aug-14 21:27N 48°37' W 123°09'0 0.0
2014-Aug-14 20:33N 48°37' W 123°09'0 0.0
2014-Aug-14 19:33N 48°37' W 123°09'0 0.0
2014-Aug-14 18:33N 48°37' W 123°09'0 0.0
2014-Aug-14 17:27N 48°37' W 123°09'0 0.0
2014-Aug-14 16:33N 48°37' W 123°09'0 0.0
2014-Aug-14 15:33N 48°37' W 123°09'0 0.0
2014-Aug-14 14:33N 48°37' W 123°09'0 0.0
2014-Aug-14 13:33N 48°37' W 123°09'0 0.0
2014-Aug-14 12:33N 48°37' W 123°09'0 0.0
2014-Aug-14 11:33N 48°37' W 123°09'0 0.0
2014-Aug-14 10:33N 48°37' W 123°09'0 0.0
2014-Aug-14 09:33N 48°37' W 123°09'0 0.0
2014-Aug-14 08:27N 48°37' W 123°09'0 0.0
2014-Aug-14 07:27N 48°37' W 123°09'0 0.0
2014-Aug-14 06:33N 48°37' W 123°09'0 0.0
2014-Aug-14 05:33N 48°37' W 123°09'0 0.0
2014-Aug-14 04:33N 48°37' W 123°09'0 0.0
2014-Aug-14 03:33N 48°37' W 123°09'0 0.0
2014-Aug-14 02:33N 48°37' W 123°09'0 0.0
2014-Aug-14 01:33N 48°37' W 123°09'0 0.0
2014-Aug-14 00:33N 48°37' W 123°09'0 0.0
2014-Aug-13 23:33N 48°37' W 123°09'0 0.0
2014-Aug-13 22:33N 48°37' W 123°09'0 0.0
2014-Aug-13 21:33N 48°37' W 123°09'0 0.0
2014-Aug-13 20:33N 48°37' W 123°09'0 0.0
2014-Aug-13 19:33N 48°37' W 123°09'0 0.0
2014-Aug-13 18:32N 48°37' W 123°09'2 2.0
2014-Aug-13 17:33N 48°38' W 123°10'3 2.5
2014-Aug-13 16:29N 48°41' W 123°12'0 0.0
2014-Aug-13 15:14N 48°41' W 123°12'0 0.0
2014-Aug-13 14:29N 48°41' W 123°12'0 0.0
2014-Aug-13 12:23N 48°41' W 123°12'0 0.0
2014-Aug-13 07:11N 48°41' W 123°12'0 0.0
2014-Aug-13 05:11N 48°41' W 123°12'0 0.0
2014-Aug-13 01:05N 48°41' W 123°12'0 0.0
2014-Aug-13 00:26N 48°41' W 123°12'0 0.0
2014-Aug-12 23:23N 48°41' W 123°12'0 0.0
2014-Aug-12 21:05N 48°41' W 123°12'0 0.0
2014-Aug-12 18:26N 48°41' W 123°12'910.2
2014-Aug-12 17:33N 48°44' W 122°59'4 2.7
2014-Aug-12 16:13N 48°46' W 122°54'0 0.0
2014-Aug-12 12:19N 48°46' W 122°54'0 0.0
2014-Aug-12 11:19N 48°46' W 122°54'0 0.0
2014-Aug-12 10:31N 48°46' W 122°54'0 0.0
2014-Aug-12 09:31N 48°46' W 122°54'0 0.0
2014-Aug-12 08:19N 48°46' W 122°54'0 0.0
2014-Aug-12 07:13N 48°46' W 122°54'0 0.0
2014-Aug-12 05:31N 48°46' W 122°54'0 0.0
2014-Aug-12 04:22N 48°46' W 122°54'0 0.0
2014-Aug-12 01:16N 48°46' W 122°54'3 0.9
2014-Aug-11 21:33N 48°44' W 122°51'10 9.5
2014-Aug-11 20:33N 48°38' W 122°39'8 7.6
2014-Aug-11 19:33N 48°31' W 122°35'1 1.2
2014-Aug-11 18:32N 48°31' W 122°36'0 0.0
2014-Aug-11 17:32N 48°31' W 122°36'0 0.0
2014-Aug-11 16:32N 48°31' W 122°36'0 0.0
2014-Aug-11 15:32N 48°31' W 122°36'0 0.0
2014-Aug-11 14:32N 48°31' W 122°36'0 0.0
2014-Aug-11 13:32N 48°31' W 122°36'0 0.0
2014-Aug-11 12:32N 48°31' W 122°36'0 0.0
2014-Aug-11 11:32N 48°31' W 122°36'0 0.0
2014-Aug-11 10:32N 48°31' W 122°36'0 0.0
2014-Aug-11 09:32N 48°31' W 122°36'0 0.0
2014-Aug-11 08:32N 48°31' W 122°36'0 0.0
2014-Aug-11 07:32N 48°31' W 122°36'0 0.0
2014-Aug-11 06:32N 48°31' W 122°36'0 0.0
2014-Aug-11 05:32N 48°31' W 122°36'0 0.0
2014-Aug-11 04:32N 48°31' W 122°36'0 0.0
2014-Aug-11 03:32N 48°31' W 122°36'0 0.0
2014-Aug-11 02:26N 48°31' W 122°36'0 0.0
2014-Aug-11 01:26N 48°31' W 122°36'0 0.0
2014-Aug-11 00:32N 48°31' W 122°36'1 1.5
2014-Aug-10 23:33N 48°31' W 122°38'3 2.9
2014-Aug-10 22:33N 48°33' W 122°35'6 0.2
2014-Aug-09 17:17N 48°27' W 122°31'0 0.0
2014-Aug-09 12:29N 48°27' W 122°31'0 0.0
2014-Aug-09 11:05N 48°27' W 122°31'0 0.0
2014-Aug-09 05:17N 48°27' W 122°31'0 0.0
2014-Aug-09 04:17N 48°27' W 122°31'0 0.0
2014-Aug-08 15:29N 48°27' W 122°31'0 0.0
2014-Aug-08 13:29N 48°27' W 122°31'0 0.0
2014-Aug-08 12:11N 48°27' W 122°31'  
Track history (hours):
 
Tides and Currents Weather Stations Pressure Air Temp Water Temp Dewpoint Dewpoint Depression Visibility Wind Speed Wind Dir Waves Ship Positions

Liberty

More information available from US FCC via Universal Licensing System.

Last reported at 2014-Aug-18 10:30 UTC. Time now 2014-Aug-21 14:09 UTC.
Position N 48°27' W 122°31'.

Length 25 m.

MMSI: 367110770.

Date/timePositionNaut miles runAvg speedWind from/ knotsBaromVisibWave heightAir tempDewpointWater temp
2014-Aug-18 10:30N 48°27' W 122°31'0 0.0
2014-Aug-17 11:18N 48°27' W 122°31'0 0.0
2014-Aug-17 09:12N 48°27' W 122°31'0 0.0
2014-Aug-15 23:08N 48°27' W 122°31'4 6.4
2014-Aug-15 22:33N 48°31' W 122°34'10 7.7
2014-Aug-15 21:12N 48°32' W 122°49'8 8.4
2014-Aug-15 20:14N 48°36' W 122°60'2 2.9
2014-Aug-15 19:28N 48°37' W 123°03'5 5.5
2014-Aug-15 18:33N 48°37' W 123°10'1 0.9
2014-Aug-15 17:33N 48°37' W 123°09'0 0.0
2014-Aug-15 16:33N 48°37' W 123°09'0 0.0
2014-Aug-15 15:33N 48°37' W 123°09'0 0.0
2014-Aug-15 14:33N 48°37' W 123°09'0 0.0
2014-Aug-15 13:33N 48°37' W 123°09'0 0.0
2014-Aug-15 12:33N 48°37' W 123°09'0 0.0
2014-Aug-15 11:33N 48°37' W 123°09'0 0.0
2014-Aug-15 10:33N 48°37' W 123°09'0 0.0
2014-Aug-15 09:33N 48°37' W 123°09'0 0.0
2014-Aug-15 08:33N 48°37' W 123°09'0 0.0
2014-Aug-15 07:33N 48°37' W 123°09'0 0.0
2014-Aug-15 06:33N 48°37' W 123°09'0 0.0
2014-Aug-15 05:33N 48°37' W 123°09'0 0.0
2014-Aug-15 04:27N 48°37' W 123°09'0 0.0
2014-Aug-15 03:33N 48°37' W 123°09'0 0.0
2014-Aug-15 02:27N 48°37' W 123°09'0 0.0
2014-Aug-15 01:33N 48°37' W 123°09'0 0.0
2014-Aug-15 00:27N 48°37' W 123°09'0 0.0
2014-Aug-14 23:27N 48°37' W 123°09'0 0.0
2014-Aug-14 22:27N 48°37' W 123°09'0 0.0
2014-Aug-14 21:27N 48°37' W 123°09'0 0.0
2014-Aug-14 20:33N 48°37' W 123°09'0 0.0
2014-Aug-14 19:33N 48°37' W 123°09'0 0.0
2014-Aug-14 18:33N 48°37' W 123°09'0 0.0
2014-Aug-14 17:27N 48°37' W 123°09'0 0.0
2014-Aug-14 16:33N 48°37' W 123°09'0 0.0
2014-Aug-14 15:33N 48°37' W 123°09'0 0.0
2014-Aug-14 14:33N 48°37' W 123°09'0 0.0
2014-Aug-14 13:33N 48°37' W 123°09'0 0.0
2014-Aug-14 12:33N 48°37' W 123°09'0 0.0
2014-Aug-14 11:33N 48°37' W 123°09'0 0.0
2014-Aug-14 10:33N 48°37' W 123°09'0 0.0
2014-Aug-14 09:33N 48°37' W 123°09'0 0.0
2014-Aug-14 08:27N 48°37' W 123°09'0 0.0
2014-Aug-14 07:27N 48°37' W 123°09'0 0.0
2014-Aug-14 06:33N 48°37' W 123°09'0 0.0
2014-Aug-14 05:33N 48°37' W 123°09'0 0.0
2014-Aug-14 04:33N 48°37' W 123°09'0 0.0
2014-Aug-14 03:33N 48°37' W 123°09'0 0.0
2014-Aug-14 02:33N 48°37' W 123°09'0 0.0
2014-Aug-14 01:33N 48°37' W 123°09'0 0.0
2014-Aug-14 00:33N 48°37' W 123°09'0 0.0
2014-Aug-13 23:33N 48°37' W 123°09'0 0.0
2014-Aug-13 22:33N 48°37' W 123°09'0 0.0
2014-Aug-13 21:33N 48°37' W 123°09'0 0.0
2014-Aug-13 20:33N 48°37' W 123°09'0 0.0
2014-Aug-13 19:33N 48°37' W 123°09'0 0.0
2014-Aug-13 18:32N 48°37' W 123°09'2 2.0
2014-Aug-13 17:33N 48°38' W 123°10'3 2.5
2014-Aug-13 16:29N 48°41' W 123°12'0 0.0
2014-Aug-13 15:14N 48°41' W 123°12'0 0.0
2014-Aug-13 14:29N 48°41' W 123°12'0 0.0
2014-Aug-13 12:23N 48°41' W 123°12'0 0.0
2014-Aug-13 07:11N 48°41' W 123°12'0 0.0
2014-Aug-13 05:11N 48°41' W 123°12'0 0.0
2014-Aug-13 01:05N 48°41' W 123°12'0 0.0
2014-Aug-13 00:26N 48°41' W 123°12'0 0.0
2014-Aug-12 23:23N 48°41' W 123°12'0 0.0
2014-Aug-12 21:05N 48°41' W 123°12'0 0.0
2014-Aug-12 18:26N 48°41' W 123°12'910.2
2014-Aug-12 17:33N 48°44' W 122°59'4 2.7
2014-Aug-12 16:13N 48°46' W 122°54'0 0.0
2014-Aug-12 12:19N 48°46' W 122°54'0 0.0
2014-Aug-12 11:19N 48°46' W 122°54'0 0.0
2014-Aug-12 10:31N 48°46' W 122°54'0 0.0
2014-Aug-12 09:31N 48°46' W 122°54'0 0.0
2014-Aug-12 08:19N 48°46' W 122°54'0 0.0
2014-Aug-12 07:13N 48°46' W 122°54'0 0.0
2014-Aug-12 05:31N 48°46' W 122°54'0 0.0
2014-Aug-12 04:22N 48°46' W 122°54'0 0.0
2014-Aug-12 01:16N 48°46' W 122°54'3 0.9
2014-Aug-11 21:33N 48°44' W 122°51'10 9.5
2014-Aug-11 20:33N 48°38' W 122°39'8 7.6
2014-Aug-11 19:33N 48°31' W 122°35'1 1.2
2014-Aug-11 18:32N 48°31' W 122°36'0 0.0
2014-Aug-11 17:32N 48°31' W 122°36'0 0.0
2014-Aug-11 16:32N 48°31' W 122°36'0 0.0
2014-Aug-11 15:32N 48°31' W 122°36'0 0.0
2014-Aug-11 14:32N 48°31' W 122°36'0 0.0
2014-Aug-11 13:32N 48°31' W 122°36'0 0.0
2014-Aug-11 12:32N 48°31' W 122°36'0 0.0
2014-Aug-11 11:32N 48°31' W 122°36'0 0.0
2014-Aug-11 10:32N 48°31' W 122°36'0 0.0
2014-Aug-11 09:32N 48°31' W 122°36'0 0.0
2014-Aug-11 08:32N 48°31' W 122°36'0 0.0
2014-Aug-11 07:32N 48°31' W 122°36'0 0.0
2014-Aug-11 06:32N 48°31' W 122°36'0 0.0
2014-Aug-11 05:32N 48°31' W 122°36'0 0.0
2014-Aug-11 04:32N 48°31' W 122°36'0 0.0
2014-Aug-11 03:32N 48°31' W 122°36'0 0.0
2014-Aug-11 02:26N 48°31' W 122°36'0 0.0
2014-Aug-11 01:26N 48°31' W 122°36'0 0.0
2014-Aug-11 00:32N 48°31' W 122°36'1 1.5
2014-Aug-10 23:33N 48°31' W 122°38'3 2.9
2014-Aug-10 22:33N 48°33' W 122°35'6 0.2
2014-Aug-09 17:17N 48°27' W 122°31'0 0.0
2014-Aug-09 12:29N 48°27' W 122°31'0 0.0
2014-Aug-09 11:05N 48°27' W 122°31'0 0.0
2014-Aug-09 05:17N 48°27' W 122°31'0 0.0
2014-Aug-09 04:17N 48°27' W 122°31'0 0.0
2014-Aug-08 15:29N 48°27' W 122°31'0 0.0
2014-Aug-08 13:29N 48°27' W 122°31'0 0.0
2014-Aug-08 12:11N 48°27' W 122°31'  

Dump ship's entire track history